Time;durP1;ratioP1;P1;durP2;ratioP2;P2;SDS_P1;SDS_P2;PMS_P1;PMS_P2;Temp;Humidity;BMP_temperature;BMP_pressure;BME280_temperature;BME280_humidity;BME280_pressure;Samples;Min_cycle;Max_cycle;Signal;HPM_P1;HPM_P2
2022/11/12 00:00:44;;;;;;;25.42;16.63;;;11.60;99.90;;;;;;5011320;28;20040;-54
2022/11/12 00:03:10;;;;;;;24.08;15.93;;;11.50;99.90;;;;;;5008208;28;20030;-57
2022/11/12 00:05:36;;;;;;;23.80;16.02;;;11.50;99.90;;;;;;5009043;28;20095;-57
2022/11/12 00:08:02;;;;;;;23.15;15.18;;;11.50;99.90;;;;;;5010225;28;20470;-56
2022/11/12 00:10:29;;;;;;;23.42;15.25;;;11.40;99.90;;;;;;4989884;28;20372;-54
2022/11/12 00:12:54;;;;;;;25.20;16.00;;;11.30;99.90;;;;;;4985868;28;20081;-55
2022/11/12 00:15:20;;;;;;;23.98;17.17;;;11.30;99.90;;;;;;4983706;28;20038;-55
2022/11/12 00:17:46;;;;;;;23.05;16.38;;;11.30;99.90;;;;;;4990584;28;20034;-54
2022/11/12 00:20:12;;;;;;;21.73;15.68;;;11.30;99.90;;;;;;4990361;28;20046;-55
2022/11/12 00:22:37;;;;;;;21.85;15.77;;;11.30;99.90;;;;;;4990817;28;20641;-55
2022/11/12 00:25:04;;;;;;;24.75;16.48;;;11.40;99.90;;;;;;4990629;28;20046;-56
2022/11/12 00:27:31;;;;;;;23.25;15.27;;;11.40;99.90;;;;;;4992218;28;20511;-55
2022/11/12 00:29:56;;;;;;;28.63;17.10;;;11.40;99.90;;;;;;4994293;28;20038;-55
2022/11/12 00:32:23;;;;;;;23.70;15.85;;;;;;;;;;4994148;28;20556;-56
2022/11/12 00:34:48;;;;;;;24.88;15.35;;;11.00;99.90;;;;;;4994024;28;20077;-56
2022/11/12 00:37:15;;;;;;;23.98;16.77;;;;;;;;;;4994122;28;20486;-53
2022/11/12 00:39:41;;;;;;;24.23;17.17;;;10.90;99.90;;;;;;4993975;28;20096;-57
2022/11/12 00:42:08;;;;;;;25.40;17.23;;;;;;;;;;5007794;28;20485;-55
2022/11/12 00:44:33;;;;;;;25.27;17.20;;;10.80;99.90;;;;;;5011870;28;20029;-57
2022/11/12 00:46:59;;;;;;;25.60;17.77;;;11.00;99.90;;;;;;5009195;28;20030;-56
2022/11/12 00:49:25;;;;;;;26.83;18.55;;;11.00;99.90;;;;;;5010764;28;20101;-57
2022/11/12 00:51:51;;;;;;;31.80;19.02;;;11.20;99.90;;;;;;5013211;28;20042;-56
2022/11/12 00:54:16;;;;;;;24.25;18.25;;;11.20;99.90;;;;;;5011855;28;20026;-54
2022/11/12 00:56:42;;;;;;;29.67;18.48;;;;;;;;;;5009751;28;20034;-55
2022/11/12 00:59:09;;;;;;;25.92;17.65;;;;;;;;;;5010492;28;20022;-57
2022/11/12 01:01:35;;;;;;;27.08;17.13;;;;;;;;;;5010829;28;20030;-55
2022/11/12 01:04:01;;;;;;;27.25;17.85;;;;;;;;;;5013468;28;20069;-55
2022/11/12 01:06:27;;;;;;;25.25;17.50;;;;;;;;;;5005875;28;20045;-53
2022/11/12 01:08:54;;;;;;;26.02;17.25;;;;;;;;;;5007550;28;20038;-57
2022/11/12 01:11:22;;;;;;;23.00;17.05;;;;;;;;;;5012958;28;20045;-56
2022/11/12 01:13:53;;;;;;;26.05;18.33;;;;;;;;;;5012230;28;20374;-55
2022/11/12 01:16:21;;;;;;;26.13;17.77;;;10.70;99.90;;;;;;5038859;28;20113;-54
2022/11/12 01:18:50;;;;;;;26.10;17.63;;;10.70;99.90;;;;;;5013082;28;20482;-54
2022/11/12 01:21:16;;;;;;;29.55;18.65;;;10.80;99.90;;;;;;5008337;28;20385;-57
2022/11/12 01:23:42;;;;;;;26.58;16.08;;;10.90;99.90;;;;;;5008148;28;20037;-55
2022/11/12 01:26:13;;;;;;;25.08;17.33;;;11.00;99.90;;;;;;5012849;28;20030;-53
2022/11/12 01:28:40;;;;;;;25.40;16.83;;;11.00;99.90;;;;;;5009797;28;20093;-53
2022/11/12 01:31:27;;;;;;;27.75;17.63;;;11.10;99.90;;;;;;5009523;28;20025;-56
2022/11/12 01:33:55;;;;;;;27.92;17.45;;;11.00;99.90;;;;;;5008854;28;20164;-54
2022/11/12 01:36:22;;;;;;;27.88;18.92;;;11.10;99.90;;;;;;5026634;28;20038;-56
2022/11/12 01:38:48;;;;;;;28.27;18.38;;;11.30;99.90;;;;;;5005951;28;20088;-55
2022/11/12 01:41:18;;;;;;;24.92;17.10;;;11.30;99.90;;;;;;5011630;28;20054;-55
2022/11/12 01:43:44;;;;;;;21.95;15.80;;;11.40;99.90;;;;;;5007126;28;20030;-53
2022/11/12 01:46:19;;;;;;;23.55;17.45;;;11.40;99.90;;;;;;5011823;28;20026;-56
2022/11/12 01:48:51;;;;;;;19.80;15.60;;;11.30;99.90;;;;;;5007579;28;20489;-55
2022/11/12 01:51:20;;;;;;;23.83;15.68;;;11.30;99.90;;;;;;5012338;28;20117;-52
2022/11/12 01:53:50;;;;;;;23.88;15.43;;;11.30;99.90;;;;;;5042289;28;20168;-54
2022/11/12 01:56:17;;;;;;;23.90;15.75;;;11.10;99.90;;;;;;5013607;28;20448;-54
2022/11/12 01:58:45;;;;;;;25.88;14.95;;;11.00;99.90;;;;;;5009793;28;20113;-55
2022/11/12 02:01:11;;;;;;;24.33;15.95;;;10.90;99.90;;;;;;5005669;28;20136;-54
2022/11/12 02:03:37;;;;;;;26.25;15.85;;;11.00;99.90;;;;;;5006863;28;20121;-57
2022/11/12 02:06:10;;;;;;;26.27;15.68;;;10.80;99.90;;;;;;5011432;28;20037;-55
2022/11/12 02:08:37;;;;;;;22.08;14.88;;;10.80;99.90;;;;;;5009408;28;20096;-55
2022/11/12 02:11:17;;;;;;;26.63;16.17;;;10.80;99.90;;;;;;5012560;28;20041;-54
2022/11/12 02:13:57;;;;;;;21.67;15.13;;;10.80;99.90;;;;;;5010239;28;20382;-54
2022/11/12 02:16:34;;;;;;;28.33;15.48;;;10.70;99.90;;;;;;5010108;28;20484;-52
2022/11/12 02:19:02;;;;;;;22.17;16.10;;;10.60;99.90;;;;;;5010903;28;20069;-56
2022/11/12 02:21:28;;;;;;;26.58;16.17;;;10.50;99.90;;;;;;5002415;28;20030;-54
2022/11/12 02:23:59;;;;;;;26.00;15.80;;;10.40;99.90;;;;;;5001831;28;20049;-54
2022/11/12 02:26:28;;;;;;;23.88;15.45;;;10.50;99.90;;;;;;5003069;28;20022;-57
2022/11/12 02:28:53;;;;;;;22.55;15.15;;;10.50;99.90;;;;;;5008592;28;20059;-56
2022/11/12 02:31:19;;;;;;;23.88;15.23;;;10.50;99.90;;;;;;5021433;28;20042;-53
2022/11/12 02:33:45;;;;;;;25.63;15.65;;;10.50;99.90;;;;;;5006140;28;20033;-53
2022/11/12 02:36:11;;;;;;;26.73;17.02;;;10.40;99.90;;;;;;5011627;28;20037;-54
2022/11/12 02:38:36;;;;;;;24.85;15.13;;;10.40;99.90;;;;;;5005552;28;20374;-56
2022/11/12 02:41:02;;;;;;;22.20;15.68;;;10.50;99.90;;;;;;5039740;28;20085;-56
2022/11/12 02:43:28;;;;;;;26.52;16.05;;;10.50;99.90;;;;;;5010519;28;20030;-55
2022/11/12 02:45:53;;;;;;;28.08;16.38;;;10.60;99.90;;;;;;5009242;28;20022;-55
2022/11/12 02:48:19;;;;;;;23.33;16.55;;;10.50;99.90;;;;;;5006559;28;20033;-55
2022/11/12 02:50:46;;;;;;;24.35;16.63;;;10.40;99.90;;;;;;4995152;28;20046;-56
2022/11/12 02:53:12;;;;;;;27.20;17.25;;;10.40;99.90;;;;;;5007806;28;20079;-54
2022/11/12 02:55:38;;;;;;;27.33;17.73;;;10.40;99.90;;;;;;5009372;28;20045;-53
2022/11/12 02:58:03;;;;;;;27.10;17.05;;;10.40;99.90;;;;;;5010748;28;20026;-55
2022/11/12 03:00:29;;;;;;;27.00;17.10;;;10.50;99.90;;;;;;5004568;28;20026;-55
2022/11/12 03:02:58;;;;;;;23.55;16.92;;;10.60;99.90;;;;;;5009117;28;20373;-55
2022/11/12 03:05:28;;;;;;;25.52;16.90;;;10.70;99.90;;;;;;5009576;28;20104;-53
2022/11/12 03:08:03;;;;;;;29.90;16.77;;;10.50;99.90;;;;;;5027417;28;20042;-53
2022/11/12 03:10:29;;;;;;;31.42;17.40;;;10.40;99.90;;;;;;5008130;28;20053;-56
2022/11/12 03:12:57;;;;;;;26.67;16.95;;;10.50;99.90;;;;;;5012019;28;20408;-54
2022/11/12 03:15:24;;;;;;;27.05;16.48;;;10.60;99.90;;;;;;5010597;28;20171;-55
2022/11/12 03:17:49;;;;;;;25.45;16.50;;;10.50;99.90;;;;;;5007433;28;20030;-53
2022/11/12 03:20:15;;;;;;;31.00;18.08;;;10.40;99.90;;;;;;5001950;28;20030;-56
2022/11/12 03:22:41;;;;;;;26.40;16.98;;;10.40;99.90;;;;;;5008842;28;20113;-53
2022/11/12 03:25:08;;;;;;;24.58;17.20;;;10.30;99.90;;;;;;5006605;28;20030;-57
2022/11/12 03:27:34;;;;;;;28.40;16.42;;;10.50;99.90;;;;;;5012683;28;20489;-54
2022/11/12 03:29:59;;;;;;;25.92;16.60;;;10.50;99.90;;;;;;5007517;28;20061;-55
2022/11/12 03:32:25;;;;;;;26.23;16.70;;;10.60;99.90;;;;;;5006652;28;20065;-54
2022/11/12 03:34:51;;;;;;;24.13;16.73;;;10.50;99.90;;;;;;5011118;28;20056;-57
2022/11/12 03:37:17;;;;;;;23.83;16.30;;;10.50;99.90;;;;;;5028724;28;20038;-55
2022/11/12 03:39:43;;;;;;;28.15;17.65;;;;;;;;;;5006037;28;20088;-57
2022/11/12 03:42:09;;;;;;;24.38;16.92;;;;;;;;;;5004754;28;20034;-55
2022/11/12 03:44:35;;;;;;;25.60;16.75;;;;;;;;;;5007585;28;20050;-55
2022/11/12 03:47:01;;;;;;;26.02;15.48;;;11.20;99.90;;;;;;5008826;28;20076;-55
2022/11/12 03:49:26;;;;;;;24.20;16.35;;;11.00;99.90;;;;;;5006831;28;20025;-55
2022/11/12 03:51:52;;;;;;;24.00;16.27;;;11.00;99.90;;;;;;5027021;28;20037;-56
2022/11/12 03:54:19;;;;;;;22.25;15.27;;;11.00;99.90;;;;;;5004346;28;20474;-57
2022/11/12 03:56:44;;;;;;;23.17;15.18;;;11.10;99.90;;;;;;5012236;28;20029;-53
2022/11/12 03:59:10;;;;;;;27.85;15.88;;;11.10;99.90;;;;;;5003716;28;20496;-55
2022/11/12 04:01:36;;;;;;;22.85;15.07;;;11.10;99.90;;;;;;5008699;28;20026;-56
2022/11/12 04:04:02;;;;;;;21.88;14.68;;;11.20;99.90;;;;;;5008761;28;20050;-54
2022/11/12 04:09:11;;;;;;;21.45;14.77;;;11.30;99.90;;;;;;5001278;28;20497;-54
2022/11/12 04:11:37;;;;;;;26.95;14.93;;;11.30;99.90;;;;;;4977230;28;20038;-56
2022/11/12 04:14:03;;;;;;;25.58;15.18;;;11.30;99.90;;;;;;5008785;28;20371;-56
2022/11/12 04:22:05;;;;;;;24.08;16.20;;;11.00;99.90;;;;;;5009077;28;20037;-54
2022/11/12 04:27:29;;;;;;;26.08;16.58;;;10.90;99.90;;;;;;5005475;28;20060;-55
2022/11/12 04:32:48;;;;;;;26.40;16.98;;;11.00;99.90;;;;;;4990164;28;20434;-54
2022/11/12 04:35:14;;;;;;;24.95;15.93;;;11.10;99.90;;;;;;4958330;28;20050;-53
2022/11/12 04:37:43;;;;;;;28.73;16.92;;;;;;;;;;4990286;28;20565;-54
2022/11/12 04:45:43;;;;;;;23.95;17.02;;;11.20;99.90;;;;;;4990193;28;20064;-56
2022/11/12 04:48:09;;;;;;;22.20;16.02;;;11.10;99.90;;;;;;4973797;28;20042;-55
2022/11/12 04:50:36;;;;;;;24.10;16.08;;;11.10;99.90;;;;;;4987796;28;20034;-53
2022/11/12 04:53:02;;;;;;;23.80;15.52;;;11.00;99.90;;;;;;4988429;28;20162;-57
2022/11/12 04:55:28;;;;;;;24.60;16.27;;;;;;;;;;4990107;28;20500;-53
2022/11/12 04:57:54;;;;;;;23.48;16.10;;;;;;;;;;5000599;28;20046;-53
2022/11/12 05:00:20;;;;;;;24.38;16.02;;;;;;;;;;4967418;28;20041;-55
2022/11/12 05:02:48;;;;;;;27.55;16.33;;;;;;;;;;5006567;28;20042;-54
2022/11/12 05:05:14;;;;;;;24.60;16.38;;;;;;;;;;5005848;28;20042;-55
2022/11/12 05:07:40;;;;;;;30.13;17.17;;;;;;;;;;5011455;28;20115;-57
2022/11/12 05:10:07;;;;;;;23.83;16.95;;;;;;;;;;5009800;28;20084;-55
2022/11/12 05:12:33;;;;;;;26.00;16.17;;;;;;;;;;5009956;28;20038;-53
2022/11/12 05:14:58;;;;;;;27.13;16.27;;;10.70;99.90;;;;;;4993120;28;20054;-53
2022/11/12 05:17:24;;;;;;;27.55;17.33;;;10.70;99.90;;;;;;5011169;28;20034;-53
2022/11/12 05:19:50;;;;;;;23.55;16.15;;;11.00;99.90;;;;;;5009421;28;20030;-56
2022/11/12 05:22:16;;;;;;;27.27;17.63;;;;;;;;;;5009265;28;20112;-52
2022/11/12 05:24:43;;;;;;;24.35;17.13;;;;;;;;;;5012150;28;20037;-56
2022/11/12 05:27:10;;;;;;;28.20;17.27;;;;;;;;;;5009313;28;20029;-54
2022/11/12 05:29:37;;;;;;;31.58;17.10;;;;;;;;;;5012886;28;20057;-55
2022/11/12 05:32:03;;;;;;;26.23;17.48;;;;;;;;;;5008252;28;20053;-54
2022/11/12 05:34:29;;;;;;;26.73;17.73;;;;;;;;;;5012370;28;20037;-54
2022/11/12 05:36:55;;;;;;;28.55;16.65;;;;;;;;;;5011173;28;20053;-53
2022/11/12 05:39:21;;;;;;;31.38;18.10;;;11.30;99.90;;;;;;5010084;28;20493;-56
2022/11/12 05:41:47;;;;;;;27.38;17.50;;;11.30;99.90;;;;;;5006106;28;20117;-56
2022/11/12 05:44:13;;;;;;;48.92;21.92;;;11.40;99.90;;;;;;5009639;28;20073;-55
2022/11/12 05:46:39;;;;;;;35.13;19.92;;;11.40;99.90;;;;;;5007064;28;20093;-52
2022/11/12 05:49:04;;;;;;;52.28;22.50;;;11.60;99.90;;;;;;5011199;28;20064;-53
2022/11/12 05:51:30;;;;;;;34.03;18.58;;;11.60;99.90;;;;;;5005596;28;20025;-55
2022/11/12 05:53:56;;;;;;;29.10;18.23;;;11.60;99.90;;;;;;4977347;28;20037;-54
2022/11/12 05:56:22;;;;;;;28.27;19.25;;;11.30;99.90;;;;;;5042194;28;20082;-53
2022/11/12 05:58:48;;;;;;;28.23;17.67;;;10.50;99.90;;;;;;5004695;28;20128;-54
2022/11/12 06:01:13;;;;;;;36.40;21.33;;;10.70;99.90;;;;;;5004550;28;20045;-56
2022/11/12 06:03:40;;;;;;;42.00;23.45;;;10.30;99.90;;;;;;5008389;28;20045;-54
2022/11/12 06:06:06;;;;;;;33.63;21.25;;;10.20;99.90;;;;;;5007856;28;20049;-56
2022/11/12 06:08:31;;;;;;;37.50;21.02;;;10.20;99.90;;;;;;5006180;28;20096;-56
2022/11/12 06:10:57;;;;;;;32.53;19.08;;;10.40;99.90;;;;;;5005894;28;20026;-55
2022/11/12 06:13:24;;;;;;;27.73;17.98;;;10.40;99.90;;;;;;5022037;28;20046;-55
2022/11/12 06:15:51;;;;;;;23.05;17.17;;;10.50;99.90;;;;;;5003694;28;20034;-54
2022/11/12 06:18:17;;;;;;;22.70;15.85;;;10.40;99.90;;;;;;5037904;28;20486;-55
2022/11/12 06:20:42;;;;;;;25.00;15.98;;;10.00;99.90;;;;;;5015427;28;20052;-56
2022/11/12 06:23:09;;;;;;;26.48;16.40;;;;;;;;;;5006803;28;20478;-56
2022/11/12 06:25:35;;;;;;;26.00;17.67;;;;;;;;;;5010583;28;20120;-55
2022/11/12 06:28:01;;;;;;;25.90;16.15;;;;;;;;;;5010705;28;20046;-56
2022/11/12 06:30:27;;;;;;;22.42;16.20;;;10.10;99.90;;;;;;5026450;28;20617;-54
2022/11/12 06:32:53;;;;;;;27.63;16.83;;;;;;;;;;5009018;28;20113;-53
2022/11/12 06:35:19;;;;;;;22.30;15.20;;;;;;;;;;5004991;28;20050;-53
2022/11/12 06:37:48;;;;;;;24.77;17.13;;;;;;;;;;5007108;28;20042;-57
2022/11/12 06:40:14;;;;;;;24.70;17.02;;;10.40;99.90;;;;;;5024898;28;20042;-54
2022/11/12 06:42:40;;;;;;;22.38;16.10;;;10.60;99.90;;;;;;5005961;28;20032;-53
2022/11/12 06:45:06;;;;;;;23.50;16.02;;;10.90;99.90;;;;;;5008917;28;20022;-53
2022/11/12 06:47:32;;;;;;;24.70;15.90;;;10.70;99.90;;;;;;5004639;28;20532;-56
2022/11/12 06:49:58;;;;;;;22.27;16.50;;;10.80;99.90;;;;;;5027477;28;20038;-55
2022/11/12 06:52:23;;;;;;;24.00;16.63;;;10.80;99.90;;;;;;5005504;28;20042;-56
2022/11/12 06:54:49;;;;;;;22.30;16.38;;;10.90;99.90;;;;;;5008930;28;20037;-54
2022/11/12 06:57:15;;;;;;;27.77;17.92;;;10.80;99.90;;;;;;5005935;28;20042;-54
2022/11/12 06:59:40;;;;;;;24.00;16.80;;;10.50;99.90;;;;;;5005353;28;20038;-54
2022/11/12 07:02:06;;;;;;;26.85;18.05;;;10.30;99.90;;;;;;5002830;28;20029;-54
2022/11/12 07:04:32;;;;;;;27.85;17.20;;;10.50;99.90;;;;;;5006006;28;20053;-53
2022/11/12 07:06:58;;;;;;;26.15;17.85;;;10.70;99.90;;;;;;5010014;28;20029;-57
2022/11/12 07:09:23;;;;;;;24.67;17.98;;;11.00;99.90;;;;;;5006518;28;20470;-54
2022/11/12 07:11:49;;;;;;;26.02;18.25;;;10.90;99.90;;;;;;5011001;28;20029;-56
2022/11/12 07:14:15;;;;;;;29.83;19.45;;;;;;;;;;5006618;28;20089;-57
2022/11/12 07:16:41;;;;;;;23.13;17.00;;;11.10;99.90;;;;;;5006385;28;20041;-55
2022/11/12 07:19:06;;;;;;;24.92;14.63;;;10.70;99.90;;;;;;5009949;28;20045;-53
2022/11/12 07:21:32;;;;;;;22.95;15.43;;;10.70;99.90;;;;;;5002111;28;20026;-54
2022/11/12 07:23:58;;;;;;;27.55;20.45;;;10.80;99.90;;;;;;5031594;28;20073;-58
2022/11/12 07:26:28;;;;;;;52.20;34.38;;;10.80;99.90;;;;;;5000330;28;20103;-55
2022/11/12 07:28:57;;;;;;;29.23;20.30;;;11.80;99.90;;;;;;5001004;28;20030;-55
2022/11/12 07:31:24;;;;;;;26.15;19.45;;;11.80;99.90;;;;;;5003157;28;20611;-54
2022/11/12 07:33:50;;;;;;;27.83;20.83;;;12.20;99.90;;;;;;5007206;28;20038;-56
2022/11/12 07:36:18;;;;;;;34.85;21.88;;;12.50;99.90;;;;;;5000969;28;20542;-56
2022/11/12 07:38:45;;;;;;;20.42;16.20;;;;;;;;;;4999482;28;20504;-54
2022/11/12 07:41:16;;;;;;;47.92;32.40;;;13.40;99.90;;;;;;5001391;28;20033;-53
2022/11/12 07:43:44;;;;;;;24.52;16.90;;;13.60;99.90;;;;;;5011763;28;20042;-54
2022/11/12 07:46:13;;;;;;;19.33;15.35;;;13.70;99.90;;;;;;5000010;28;20030;-54
2022/11/12 07:48:39;;;;;;;28.23;16.77;;;13.90;99.90;;;;;;5010796;28;20030;-55
2022/11/12 07:51:07;;;;;;;35.08;18.98;;;14.00;99.90;;;;;;5007469;28;20552;-54
2022/11/12 07:53:33;;;;;;;21.02;16.13;;;14.20;99.90;;;;;;5007922;28;20022;-57
2022/11/12 07:56:00;;;;;;;19.50;14.98;;;14.20;99.90;;;;;;5042898;28;20125;-56
2022/11/12 07:58:29;;;;;;;20.55;14.77;;;14.60;99.90;;;;;;5007821;28;20487;-55
2022/11/12 08:00:55;;;;;;;21.38;14.70;;;14.60;99.90;;;;;;5006168;28;20433;-57
2022/11/12 08:03:20;;;;;;;21.63;14.80;;;15.50;99.90;;;;;;5006517;28;20053;-54
2022/11/12 08:05:46;;;;;;;20.33;14.02;;;18.70;99.90;;;;;;5009726;28;20038;-57
2022/11/12 08:08:14;;;;;;;16.75;13.73;;;;;;;;;;4989817;28;20050;-57
2022/11/12 08:10:40;;;;;;;16.92;13.80;;;;;;;;;;5009368;28;20536;-56
2022/11/12 08:13:06;;;;;;;17.58;12.88;;;;;;;;;;5004988;28;20025;-54
2022/11/12 08:15:32;;;;;;;13.25;10.70;;;21.80;99.90;;;;;;5010947;28;20042;-56
2022/11/12 08:17:58;;;;;;;15.85;11.35;;;;;;;;;;5007184;28;20030;-52
2022/11/12 08:20:23;;;;;;;17.58;9.80;;;23.70;99.90;;;;;;5009592;28;20035;-52
2022/11/12 08:22:49;;;;;;;16.58;9.18;;;24.40;99.90;;;;;;5008158;28;20524;-54
2022/11/12 08:25:15;;;;;;;13.55;9.27;;;23.30;96.60;;;;;;5023644;28;20090;-55
2022/11/12 08:27:41;;;;;;;12.27;8.52;;;21.90;98.50;;;;;;5010038;28;20038;-54
2022/11/12 08:30:08;;;;;;;16.25;9.73;;;21.90;98.50;;;;;;5005272;28;20389;-53
2022/11/12 08:32:33;;;;;;;16.20;12.30;;;22.40;98.90;;;;;;5009190;28;20053;-53
2022/11/12 08:34:59;;;;;;;16.33;10.02;;;22.20;97.90;;;;;;5005958;28;20092;-52
2022/11/12 08:37:25;;;;;;;14.13;10.10;;;21.80;98.70;;;;;;4997083;28;20018;-53
2022/11/12 08:39:51;;;;;;;13.48;10.90;;;;;;;;;;5006952;28;20038;-52
2022/11/12 08:42:17;;;;;;;11.20;9.20;;;20.90;99.90;;;;;;5006694;28;20101;-52
2022/11/12 08:44:43;;;;;;;15.25;10.65;;;19.20;99.90;;;;;;5020073;28;20117;-52
2022/11/12 08:47:08;;;;;;;11.20;9.07;;;19.00;99.90;;;;;;5008655;28;20030;-55
2022/11/12 08:49:34;;;;;;;15.48;9.40;;;19.50;99.90;;;;;;5007572;28;20088;-54
2022/11/12 08:52:00;;;;;;;13.23;9.68;;;18.90;99.90;;;;;;5010058;28;20061;-54
2022/11/12 08:54:25;;;;;;;13.82;9.52;;;19.30;99.90;;;;;;5006425;28;20058;-52
2022/11/12 08:56:51;;;;;;;15.05;9.98;;;18.80;99.90;;;;;;5030640;28;20041;-54
2022/11/12 08:59:17;;;;;;;13.10;10.23;;;18.60;99.90;;;;;;5037820;28;20038;-55
2022/11/12 09:01:43;;;;;;;14.45;10.23;;;;;;;;;;5012584;28;20022;-54
2022/11/12 09:04:09;;;;;;;14.63;9.85;;;19.80;99.90;;;;;;5013266;28;20057;-53
2022/11/12 09:06:34;;;;;;;12.80;10.00;;;20.30;99.90;;;;;;5028645;28;20502;-52
2022/11/12 09:09:00;;;;;;;16.08;10.75;;;19.80;99.90;;;;;;5009848;28;20048;-55
2022/11/12 09:11:26;;;;;;;13.45;11.90;;;;;;;;;;5010596;28;20034;-53
2022/11/12 09:13:53;;;;;;;20.02;13.77;;;21.10;99.90;;;;;;5013085;28;20034;-52
2022/11/12 09:16:20;;;;;;;13.45;11.27;;;;;;;;;;5009870;28;20042;-52
2022/11/12 09:18:47;;;;;;;15.40;12.25;;;22.70;99.80;;;;;;5008382;28;20049;-55
2022/11/12 09:21:12;;;;;;;16.25;12.45;;;23.20;99.90;;;;;;5004566;28;20128;-55
2022/11/12 09:23:38;;;;;;;15.02;11.77;;;24.00;99.90;;;;;;5012948;28;20089;-55
2022/11/12 09:26:05;;;;;;;15.02;12.68;;;;;;;;;;5013697;28;20079;-54
2022/11/12 09:28:31;;;;;;;14.90;13.15;;;27.00;99.90;;;;;;5014334;28;20104;-55
2022/11/12 09:30:57;;;;;;;15.07;11.52;;;;;;;;;;5013783;28;20489;-54
2022/11/12 09:33:26;;;;;;;14.43;12.88;;;27.80;99.90;;;;;;5013650;28;20038;-55
2022/11/12 09:35:53;;;;;;;14.88;12.40;;;28.10;90.00;;;;;;5013329;28;20037;-56
2022/11/12 09:38:19;;;;;;;24.45;18.00;;;;;;;;;;5006678;28;20034;-54
2022/11/12 09:40:50;;;;;;;19.67;15.23;;;28.40;90.20;;;;;;5024694;28;20041;-55
2022/11/12 09:43:33;;;;;;;19.90;15.45;;;28.30;95.40;;;;;;5007839;28;20026;-53
2022/11/12 09:46:22;;;;;;;20.23;15.70;;;;;;;;;;5006603;28;20389;-57
2022/11/12 09:48:51;;;;;;;22.17;17.17;;;;;;;;;;5008269;28;20074;-52
2022/11/12 09:51:17;;;;;;;15.23;13.63;;;;;;;;;;5004470;28;20038;-54
2022/11/12 09:53:47;;;;;;;15.32;12.68;;;;;;;;;;5007444;28;20042;-54
2022/11/12 09:56:15;;;;;;;15.07;13.13;;;27.60;99.90;;;;;;5011951;28;20038;-54
2022/11/12 09:58:40;;;;;;;17.50;13.65;;;27.80;87.90;;;;;;5010165;28;20033;-55
2022/11/12 10:01:14;;;;;;;14.93;13.32;;;27.80;87.50;;;;;;5004515;28;20549;-54
2022/11/12 10:03:58;;;;;;;15.50;13.30;;;27.90;86.50;;;;;;4993455;28;20042;-54
2022/11/12 10:06:34;;;;;;;16.23;13.00;;;27.30;87.70;;;;;;5005308;28;20049;-54
2022/11/12 10:09:15;;;;;;;12.90;11.00;;;26.60;86.60;;;;;;5012182;28;20029;-54
2022/11/12 10:18:07;;;;;;;16.45;13.27;;;26.80;87.00;;;;;;5009461;28;20125;-55
2022/11/12 10:20:51;;;;;;;13.68;12.27;;;26.50;86.40;;;;;;5008151;28;20073;-55
2022/11/12 10:23:33;;;;;;;16.67;12.98;;;27.20;86.10;;;;;;5006960;28;20042;-55
2022/11/12 10:26:08;;;;;;;18.20;13.63;;;27.70;86.30;;;;;;5003764;28;20134;-55
2022/11/12 10:28:37;;;;;;;15.65;13.43;;;;;;;;;;5008340;28;20054;-55
2022/11/12 10:31:18;;;;;;;16.00;13.82;;;;;;;;;;5009265;28;20117;-55
2022/11/12 10:33:44;;;;;;;15.93;13.20;;;;;;;;;;5007186;28;20034;-55
2022/11/12 10:36:32;;;;;;;14.82;13.30;;;27.20;96.20;;;;;;5027011;28;20046;-55
2022/11/12 10:38:58;;;;;;;15.88;12.73;;;;;;;;;;5012159;28;20157;-55
2022/11/12 10:41:30;;;;;;;14.40;12.45;;;25.00;99.90;;;;;;5010493;28;20030;-55
2022/11/12 10:44:00;;;;;;;18.20;14.38;;;25.30;94.90;;;;;;5007681;28;20040;-54
2022/11/12 10:46:35;;;;;;;19.13;15.13;;;24.80;99.90;;;;;;5038262;28;20049;-55
2022/11/12 10:49:07;;;;;;;19.45;14.93;;;25.10;87.90;;;;;;5013080;28;20192;-55
2022/11/12 10:51:37;;;;;;;17.98;14.40;;;24.10;87.30;;;;;;5008777;28;20120;-55
2022/11/12 10:54:22;;;;;;;19.35;15.18;;;;;;;;;;5004765;28;20029;-55
2022/11/12 10:56:48;;;;;;;19.42;15.93;;;;;;;;;;5008464;28;20108;-54
2022/11/12 10:59:16;;;;;;;17.50;15.32;;;;;;;;;;5005180;28;20433;-55
2022/11/12 11:01:44;;;;;;;17.25;15.30;;;23.80;99.90;;;;;;5008239;28;20478;-55
2022/11/12 11:04:28;;;;;;;24.90;16.17;;;23.70;90.20;;;;;;5010770;28;20053;-55
2022/11/12 11:07:00;;;;;;;20.33;17.77;;;24.60;90.10;;;;;;4998132;28;20121;-55
2022/11/12 11:09:26;;;;;;;22.90;18.42;;;25.00;89.50;;;;;;4998016;28;20490;-55
2022/11/12 11:11:53;;;;;;;20.98;18.10;;;25.30;88.90;;;;;;5001555;28;20059;-55
2022/11/12 11:14:21;;;;;;;39.45;32.80;;;25.00;88.70;;;;;;5002494;28;20030;-55
2022/11/12 11:17:03;;;;;;;35.17;30.10;;;24.00;89.00;;;;;;5006950;28;20034;-56
2022/11/12 11:19:40;;;;;;;22.90;20.42;;;24.10;89.20;;;;;;5007121;28;20504;-56
2022/11/12 11:22:20;;;;;;;22.30;17.70;;;24.60;90.10;;;;;;5008717;28;20038;-55
2022/11/12 11:24:46;;;;;;;21.35;18.98;;;24.80;89.00;;;;;;5009727;28;20026;-54
2022/11/12 11:27:30;;;;;;;24.55;18.45;;;25.00;88.40;;;;;;5007397;28;20041;-55
2022/11/12 11:30:10;;;;;;;20.98;18.50;;;;;;;;;;5006750;28;20021;-55
2022/11/12 11:33:04;;;;;;;27.48;24.60;;;24.60;88.80;;;;;;5008326;28;20112;-55
2022/11/12 11:35:53;;;;;;;23.20;20.02;;;24.20;88.70;;;;;;5004625;28;20045;-56
2022/11/12 11:38:25;;;;;;;23.70;20.33;;;;;;;;;;5010844;28;20505;-55
2022/11/12 11:41:15;;;;;;;21.70;19.05;;;23.90;99.90;;;;;;5009054;28;20037;-55
2022/11/12 11:43:47;;;;;;;21.15;17.88;;;24.60;90.80;;;;;;5008114;28;20552;-55
2022/11/12 11:46:23;;;;;;;22.48;19.33;;;24.80;96.30;;;;;;5008688;28;20038;-55
2022/11/12 11:48:54;;;;;;;21.23;18.60;;;24.80;90.00;;;;;;5007585;28;20038;-55
2022/11/12 11:51:59;;;;;;;25.02;19.60;;;24.50;89.20;;;;;;5018764;28;20041;-55
2022/11/12 11:54:48;;;;;;;19.77;17.17;;;23.90;88.90;;;;;;5007704;28;20029;-55
2022/11/12 11:57:37;;;;;;;19.77;16.90;;;;;;;;;;5003528;28;20389;-55
2022/11/12 12:00:19;;;;;;;18.27;16.33;;;23.60;91.30;;;;;;5008422;28;20038;-55
2022/11/12 12:03:06;;;;;;;19.65;17.13;;;23.60;89.10;;;;;;5020191;28;20048;-55
2022/11/12 12:05:57;;;;;;;18.63;16.60;;;23.30;89.80;;;;;;5009059;28;20049;-56
2022/11/12 12:08:53;;;;;;;20.05;17.25;;;22.90;90.40;;;;;;5018199;28;20034;-54
2022/11/12 12:11:54;;;;;;;21.40;16.23;;;22.60;90.80;;;;;;5007675;28;20088;-53
2022/11/12 12:14:35;;;;;;;20.17;16.88;;;22.80;91.10;;;;;;5004387;28;20034;-53
2022/11/12 12:17:00;;;;;;;20.25;17.17;;;22.30;90.60;;;;;;5006516;28;20046;-56
2022/11/12 12:19:33;;;;;;;18.63;14.70;;;;;;;;;;5005510;28;20033;-55
2022/11/12 12:22:01;;;;;;;19.73;15.30;;;21.40;92.00;;;;;;5003486;28;20037;-55
2022/11/12 12:24:51;;;;;;;18.38;14.77;;;21.40;91.40;;;;;;5043984;28;20037;-53
2022/11/12 12:27:25;;;;;;;16.48;13.50;;;21.80;91.50;;;;;;5009078;28;20500;-54
2022/11/12 12:30:18;;;;;;;18.67;14.35;;;21.60;90.90;;;;;;5012910;28;20042;-53
2022/11/12 12:32:55;;;;;;;15.35;13.07;;;21.30;90.70;;;;;;5009747;28;20117;-55
2022/11/12 12:35:27;;;;;;;11.88;10.63;;;21.00;91.20;;;;;;5011053;28;20034;-55
2022/11/12 12:38:02;;;;;;;;;;;20.70;91.50;;;;;;5027960;28;20041;-56
2022/11/12 12:40:38;;;;;;;16.27;12.48;;;20.40;91.80;;;;;;5040006;28;19965;-55
2022/11/12 12:43:20;;;;;;;17.23;11.82;;;20.40;92.00;;;;;;5042533;28;20072;-55
2022/11/12 12:45:46;;;;;;;14.93;11.52;;;20.60;91.90;;;;;;5008666;28;20073;-54
2022/11/12 12:48:26;;;;;;;14.73;10.18;;;20.70;92.00;;;;;;5014776;28;20557;-54
2022/11/12 12:50:52;;;;;;;14.20;11.20;;;20.90;92.10;;;;;;5012308;28;20064;-53
2022/11/12 12:53:21;;;;;;;16.98;11.40;;;21.10;91.70;;;;;;5009341;28;20025;-55
2022/11/12 12:55:54;;;;;;;14.95;11.88;;;21.00;91.70;;;;;;5013355;28;20478;-54
2022/11/12 12:58:30;;;;;;;13.60;10.32;;;20.80;91.90;;;;;;5009759;28;20489;-55
2022/11/12 13:01:14;;;;;;;12.55;9.82;;;20.80;91.90;;;;;;5009586;28;20034;-54
2022/11/12 13:03:43;;;;;;;24.50;11.05;;;20.90;91.30;;;;;;5009433;28;20405;-54
2022/11/12 13:06:23;;;;;;;14.18;10.15;;;20.90;91.20;;;;;;5010776;28;20037;-55
2022/11/12 13:08:58;;;;;;;17.73;10.18;;;21.00;90.70;;;;;;5009734;28;20026;-53
2022/11/12 13:14:35;;;;;;;15.82;8.82;;;20.90;90.70;;;;;;5010127;28;20045;-54
2022/11/12 13:17:00;;;;;;;15.13;10.02;;;20.50;90.50;;;;;;5009512;28;20378;-55
2022/11/12 13:19:37;;;;;;;16.00;9.70;;;20.50;91.00;;;;;;5007727;28;20029;-55
2022/11/12 13:22:35;;;;;;;12.88;8.93;;;20.70;90.60;;;;;;5002295;28;20117;-53
2022/11/12 13:25:07;;;;;;;15.00;9.55;;;20.60;90.90;;;;;;5002919;28;20052;-54
2022/11/12 13:27:42;;;;;;;13.48;8.82;;;20.70;91.00;;;;;;5005378;28;20113;-53